Travis Air Force Base
KSUU : now visible

Airfield :











YOU CAN JOIN US ON...

 
LOGIN :

Register | Disclaimer

   EN    FR    IT 

 









Legend :    VFR   Marginal VFR   IFR   Intensive IFR   Very Intensive IFR
Visi :
Ceiling :
>= 8 km
>= 3000ft
5 to 8 km
1000 to 3000 ft
1500m to 5 km
500 to 1000 ft
800 to 1500m
200 to 500 ft
< 800m
< 200 ft
Symbols :   Thunderstorms  Fog  Heavy snow  Heavy precipitations  Wind > 20 kt






- Airport Elevation : 62 ft


KSUU - Travis Air Force Base

CURRENT METAR :
  • 252258Z AUTO 28007KT 10SM CLR 38/10 A2982 RMK AO2 SLP104 T03810104 $

EXPIRED METARs :
  • 252158Z AUTO 22009G15KT 10SM CLR 38/10 A2984 RMK AO2 SLP111 T03770101 $
  • 252058Z AUTO 00000KT 10SM CLR 36/10 A2986 RMK AO2 SLP118 T03600095 57013 $

TAF TAF KSUU
Valid from the 25 at 19:00 until the 27 at 01:00 UTC


251900Z 2519/2701 VRB06KT 9999 SKC QNH2978INS
BECMG 2523/2524 24012G18KT 9999 SKC QNH2979INS
BECMG 2614/2615 VRB06KT 9999 SKC QNH2976INS TX38/2523Z TN15/2612Z
KZOA FIR / North America



MET'MAP, your aeronautical weather chart ! - Copyright ORBIFLY December 2007 - Disclaimer

ORBIFLY MET'MAP TEAM :

Programming & Development : Alexandra Zaïnal
Concept & original design : Baudouin d'Aumeries
Assistance for programming : Marc-Olivier Méhu
Technical & hardware support : Manuel Goepfert

Contact : metmap@orbifly.com




SOURCES & CREDITS :

   NOAA       Earth
Advisory